createdAt,value
2019-01-18T00:08:02.763Z,4.9
2019-01-18T00:18:01.915Z,4.9
2019-01-18T00:38:00.322Z,4.8
2019-01-18T00:47:59.529Z,4.8
2019-01-18T01:17:57.867Z,4.6
2019-01-18T01:27:57.073Z,4.6
2019-01-18T01:37:56.275Z,4.6
2019-01-18T01:47:55.475Z,4.6
2019-01-18T01:57:54.676Z,4.5
2019-01-18T02:07:53.879Z,4.5
2019-01-18T02:17:53.086Z,4.4
2019-01-18T02:27:52.291Z,4.4
2019-01-18T02:37:51.488Z,4.3
2019-01-18T02:47:50.693Z,4.2
2019-01-18T02:57:49.918Z,4.2
2019-01-18T03:07:49.097Z,4.1
2019-01-18T03:17:48.330Z,4.1
2019-01-18T03:27:47.528Z,4.1
2019-01-18T03:37:46.736Z,4.1
2019-01-18T03:47:45.936Z,4.1
2019-01-18T03:57:45.143Z,4
2019-01-18T04:07:44.335Z,3.9
2019-01-18T04:17:43.541Z,3.8
2019-01-18T04:27:42.740Z,3.8
2019-01-18T04:37:41.949Z,3.9
2019-01-18T04:47:41.148Z,3.9
2019-01-18T04:57:40.346Z,3.8
2019-01-18T05:07:39.545Z,3.8
2019-01-18T05:17:38.743Z,3.7
2019-01-18T05:27:37.959Z,3.6
2019-01-18T05:37:37.474Z,0.3
2019-01-18T05:47:36.355Z,-0.4
2019-01-18T05:57:35.562Z,-0.6
2019-01-18T06:07:34.769Z,-0.7
2019-01-18T06:17:33.976Z,-0.6
2019-01-18T06:27:33.180Z,0.4
2019-01-18T06:37:32.391Z,2.3
2019-01-18T06:47:31.599Z,4.4
2019-01-18T06:57:30.802Z,6.6
2019-01-18T07:07:30.011Z,7.4
2019-01-18T07:17:29.215Z,9.6
2019-01-18T07:27:28.427Z,10.4
2019-01-18T07:37:27.634Z,12.2
2019-01-18T07:47:26.838Z,13.8
2019-01-18T07:57:26.043Z,15
2019-01-18T08:07:25.252Z,15.4
2019-01-18T08:17:24.461Z,15.3
2019-01-18T08:27:23.675Z,15.3
2019-01-18T08:37:22.871Z,15.6
2019-01-18T08:47:22.085Z,14.8
2019-01-18T08:57:21.283Z,13.9
2019-01-18T09:07:20.485Z,12.8
2019-01-18T09:17:19.689Z,11.2
2019-01-18T09:27:18.891Z,10.1
2019-01-18T09:37:18.095Z,10.3
2019-01-18T09:47:17.306Z,10
2019-01-18T09:57:16.509Z,9.9
2019-01-18T10:07:15.716Z,9.8
2019-01-18T10:17:14.928Z,10.1
2019-01-18T10:27:14.131Z,11
2019-01-18T10:37:13.340Z,11.6
2019-01-18T10:47:12.549Z,12.5
2019-01-18T10:57:11.808Z,12.3
2019-01-18T11:07:10.971Z,11.8
2019-01-18T11:17:10.177Z,10.9
2019-01-18T11:27:09.439Z,10.1
2019-01-18T11:37:08.597Z,9.3
2019-01-18T11:47:07.812Z,9.3
2019-01-18T11:57:07.019Z,9.2
2019-01-18T12:07:06.228Z,9.3
2019-01-18T12:17:05.438Z,9.4
2019-01-18T12:27:04.647Z,9.2
2019-01-18T12:37:03.866Z,9
2019-01-18T12:47:03.122Z,8.6
2019-01-18T12:57:02.280Z,8.5
2019-01-18T13:07:01.504Z,8.4
2019-01-18T13:17:00.706Z,8
2019-01-18T13:26:59.914Z,7.8
2019-01-18T13:36:59.124Z,7.9
2019-01-18T13:46:58.380Z,7.5
2019-01-18T13:56:57.542Z,7.5
2019-01-18T14:06:56.747Z,7.1
2019-01-18T14:16:55.958Z,6.9
2019-01-18T14:26:55.219Z,6.4
2019-01-18T14:36:54.437Z,6.1
2019-01-18T14:46:53.643Z,5.8
2019-01-18T14:56:52.802Z,5.8
2019-01-18T15:06:52.009Z,5.7
2019-01-18T15:16:51.222Z,5.8
2019-01-18T15:26:50.429Z,6.6
2019-01-18T15:36:49.645Z,6.8
2019-01-18T15:46:48.857Z,7.1
2019-01-18T15:56:48.072Z,7.3
2019-01-18T16:06:47.287Z,7.4
2019-01-18T16:16:46.502Z,7.4
2019-01-18T16:26:45.714Z,7.4
2019-01-18T16:36:44.934Z,7.4
2019-01-18T16:46:44.145Z,7.4
2019-01-18T16:56:43.361Z,7.3
2019-01-18T17:06:42.579Z,7.2
2019-01-18T17:16:44.982Z,7.2
2019-01-18T17:26:41.009Z,7.1
2019-01-18T17:36:40.256Z,7.1
2019-01-18T17:46:39.443Z,7.1
2019-01-18T17:56:38.711Z,7.1
2019-01-18T18:06:37.874Z,7.1
2019-01-18T18:16:37.094Z,7.1
2019-01-18T18:26:36.330Z,7.2
2019-01-18T18:36:35.523Z,7.3
2019-01-18T18:46:34.771Z,7.4
2019-01-18T18:56:33.958Z,7.4
2019-01-18T19:06:33.175Z,7.5
2019-01-18T19:16:32.399Z,7.6
2019-01-18T19:26:31.607Z,7.6
2019-01-18T19:36:30.820Z,7.6
2019-01-18T19:46:30.033Z,7.7
2019-01-18T19:56:29.250Z,7.8
2019-01-18T20:06:28.469Z,7.9
2019-01-18T20:16:28.546Z,7.9
2019-01-18T20:26:26.907Z,7.9
2019-01-18T20:36:26.131Z,7.9
2019-01-18T20:46:25.376Z,7.8
2019-01-18T20:56:24.562Z,7.8
2019-01-18T21:06:23.827Z,7.8
2019-01-18T21:16:22.994Z,7.8
2019-01-18T21:26:22.210Z,7.9
2019-01-18T21:36:21.427Z,7.9
2019-01-18T21:46:20.650Z,7.9
2019-01-18T21:56:19.857Z,7.8
2019-01-18T22:06:19.060Z,7.6
2019-01-18T22:16:18.268Z,7.3
2019-01-18T22:26:17.477Z,7.3
2019-01-18T22:36:16.687Z,7.2
2019-01-18T22:46:15.895Z,7.1
2019-01-18T22:56:15.104Z,7.1
2019-01-18T23:06:14.312Z,7.1
2019-01-18T23:16:13.521Z,7.1
2019-01-18T23:26:12.729Z,7.1
2019-01-18T23:36:11.938Z,7.2
2019-01-18T23:46:11.144Z,7.1
2019-01-18T23:56:10.402Z,7.1
